sensor_id;sensor_type;location;lat;lon;timestamp;pressure;altitude;pressure_sealevel;temperature;humidity
3544;BME280;1786;52.870;9.578;2022-09-13T00:01:00;100023.81;;;28.86;46.70
3544;BME280;1786;52.870;9.578;2022-09-13T00:03:29;100028.75;;;29.08;46.42
3544;BME280;1786;52.870;9.578;2022-09-13T00:05:55;100032.56;;;29.19;45.56
3544;BME280;1786;52.870;9.578;2022-09-13T00:08:22;100025.16;;;29.49;45.66
3544;BME280;1786;52.870;9.578;2022-09-13T00:10:49;100022.78;;;29.53;45.52
3544;BME280;1786;52.870;9.578;2022-09-13T00:13:16;100027.97;;;29.19;45.87
3544;BME280;1786;52.870;9.578;2022-09-13T00:15:47;100027.81;;;29.14;46.26
3544;BME280;1786;52.870;9.578;2022-09-13T00:18:16;100031.28;;;29.21;45.76
3544;BME280;1786;52.870;9.578;2022-09-13T00:20:42;100026.75;;;29.15;45.82
3544;BME280;1786;52.870;9.578;2022-09-13T00:23:10;100018.63;;;29.27;45.65
3544;BME280;1786;52.870;9.578;2022-09-13T00:25:37;100012.09;;;28.37;46.89
3544;BME280;1786;52.870;9.578;2022-09-13T00:28:04;100004.91;;;28.61;47.00
3544;BME280;1786;52.870;9.578;2022-09-13T00:30:31;100007.81;;;28.48;47.33
3544;BME280;1786;52.870;9.578;2022-09-13T00:32:58;100011.22;;;28.74;47.00
3544;BME280;1786;52.870;9.578;2022-09-13T00:35:25;100005.72;;;29.22;46.09
3544;BME280;1786;52.870;9.578;2022-09-13T00:37:52;100007.03;;;29.43;45.98
3544;BME280;1786;52.870;9.578;2022-09-13T00:40:19;100005.88;;;29.63;45.37
3544;BME280;1786;52.870;9.578;2022-09-13T00:42:47;99998.16;;;29.60;45.69
3544;BME280;1786;52.870;9.578;2022-09-13T00:45:16;99998.41;;;29.58;45.45
3544;BME280;1786;52.870;9.578;2022-09-13T00:50:18;99991.56;;;29.44;45.74
3544;BME280;1786;52.870;9.578;2022-09-13T00:52:52;99988.34;;;29.23;45.75
3544;BME280;1786;52.870;9.578;2022-09-13T00:55:31;99986.44;;;29.24;46.40
3544;BME280;1786;52.870;9.578;2022-09-13T00:58:05;99967.56;;;28.38;47.78
3544;BME280;1786;52.870;9.578;2022-09-13T01:00:34;99966.66;;;28.44;47.20
3544;BME280;1786;52.870;9.578;2022-09-13T01:03:05;99964.09;;;28.50;47.64
3544;BME280;1786;52.870;9.578;2022-09-13T01:05:41;99960.16;;;28.27;48.13
3544;BME280;1786;52.870;9.578;2022-09-13T01:08:09;99971.53;;;28.84;47.28
3544;BME280;1786;52.870;9.578;2022-09-13T01:10:43;99964.53;;;29.30;46.08
3544;BME280;1786;52.870;9.578;2022-09-13T01:13:15;99965.41;;;29.31;46.25
3544;BME280;1786;52.870;9.578;2022-09-13T01:15:43;99957.69;;;29.16;46.25
3544;BME280;1786;52.870;9.578;2022-09-13T01:18:10;99957.69;;;29.40;46.54
3544;BME280;1786;52.870;9.578;2022-09-13T01:20:56;99955.31;;;29.55;45.91
3544;BME280;1786;52.870;9.578;2022-09-13T01:23:54;99952.25;;;29.75;45.67
3544;BME280;1786;52.870;9.578;2022-09-13T01:26:48;99944.91;;;29.75;46.24
3544;BME280;1786;52.870;9.578;2022-09-13T01:29:43;99955.19;;;29.97;46.47
3544;BME280;1786;52.870;9.578;2022-09-13T01:38:15;99945.00;;;29.92;45.75
3544;BME280;1786;52.870;9.578;2022-09-13T01:41:24;99950.25;;;30.23;45.37
3544;BME280;1786;52.870;9.578;2022-09-13T01:46:55;99959.56;;;30.38;46.01
3544;BME280;1786;52.870;9.578;2022-09-13T01:52:06;99955.63;;;30.46;46.17
3544;BME280;1786;52.870;9.578;2022-09-13T01:54:55;99968.72;;;30.61;46.88
3544;BME280;1786;52.870;9.578;2022-09-13T01:57:36;99975.28;;;30.77;46.44
3544;BME280;1786;52.870;9.578;2022-09-13T02:00:14;99958.41;;;30.63;46.55
3544;BME280;1786;52.870;9.578;2022-09-13T02:02:52;99979.63;;;30.61;47.42
3544;BME280;1786;52.870;9.578;2022-09-13T02:05:34;99972.09;;;30.51;47.96
3544;BME280;1786;52.870;9.578;2022-09-13T02:08:08;99975.66;;;30.52;47.77
3544;BME280;1786;52.870;9.578;2022-09-13T02:11:18;99985.78;;;30.39;47.21
3544;BME280;1786;52.870;9.578;2022-09-13T02:13:42;99970.84;;;30.42;47.31
3544;BME280;1786;52.870;9.578;2022-09-13T02:16:15;99970.97;;;30.35;47.87
3544;BME280;1786;52.870;9.578;2022-09-13T02:18:48;99956.94;;;30.44;47.49
3544;BME280;1786;52.870;9.578;2022-09-13T02:21:21;99953.28;;;29.97;48.24
3544;BME280;1786;52.870;9.578;2022-09-13T02:23:52;99961.78;;;30.01;48.75
3544;BME280;1786;52.870;9.578;2022-09-13T02:26:21;99952.94;;;29.94;48.79
3544;BME280;1786;52.870;9.578;2022-09-13T02:28:51;99957.09;;;29.61;49.63
3544;BME280;1786;52.870;9.578;2022-09-13T02:31:27;99958.41;;;29.47;50.22
3544;BME280;1786;52.870;9.578;2022-09-13T02:33:59;99945.13;;;29.62;49.26
3544;BME280;1786;52.870;9.578;2022-09-13T02:36:32;99934.50;;;29.49;49.65
3544;BME280;1786;52.870;9.578;2022-09-13T02:39:03;99933.78;;;29.65;49.29
3544;BME280;1786;52.870;9.578;2022-09-13T02:41:42;99930.47;;;29.51;49.53
3544;BME280;1786;52.870;9.578;2022-09-13T02:44:27;99924.78;;;29.53;49.52
3544;BME280;1786;52.870;9.578;2022-09-13T02:52:50;99924.09;;;30.50;48.26
3544;BME280;1786;52.870;9.578;2022-09-13T02:55:44;99922.91;;;30.46;48.20
3544;BME280;1786;52.870;9.578;2022-09-13T03:01:01;99909.06;;;30.07;48.98
3544;BME280;1786;52.870;9.578;2022-09-13T03:03:28;99898.75;;;29.22;50.82
3544;BME280;1786;52.870;9.578;2022-09-13T03:05:54;99900.53;;;28.51;52.20
3544;BME280;1786;52.870;9.578;2022-09-13T03:08:22;99884.34;;;28.37;52.69
3544;BME280;1786;52.870;9.578;2022-09-13T03:11:17;99898.19;;;28.36;52.91
3544;BME280;1786;52.870;9.578;2022-09-13T03:14:04;99902.69;;;28.72;52.00
3544;BME280;1786;52.870;9.578;2022-09-13T03:16:51;99893.91;;;29.12;51.76
3544;BME280;1786;52.870;9.578;2022-09-13T03:22:25;99896.84;;;29.46;50.93
3544;BME280;1786;52.870;9.578;2022-09-13T03:25:15;99889.72;;;29.68;50.46
3544;BME280;1786;52.870;9.578;2022-09-13T03:28:06;99889.50;;;29.82;49.80
3544;BME280;1786;52.870;9.578;2022-09-13T03:30:43;99889.09;;;29.90;50.25
3544;BME280;1786;52.870;9.578;2022-09-13T03:36:20;99880.53;;;29.98;49.18
3544;BME280;1786;52.870;9.578;2022-09-13T03:41:28;99865.94;;;29.05;50.87
3544;BME280;1786;52.870;9.578;2022-09-13T03:44:03;99872.38;;;29.10;51.27
3544;BME280;1786;52.870;9.578;2022-09-13T03:46:35;99881.94;;;29.13;50.92
3544;BME280;1786;52.870;9.578;2022-09-13T03:49:06;99869.41;;;29.12;50.51
3544;BME280;1786;52.870;9.578;2022-09-13T03:51:34;99892.97;;;29.06;51.27
3544;BME280;1786;52.870;9.578;2022-09-13T03:54:04;99895.69;;;29.18;50.83
3544;BME280;1786;52.870;9.578;2022-09-13T03:56:31;99891.88;;;28.96;51.70
3544;BME280;1786;52.870;9.578;2022-09-13T03:58:58;99899.00;;;29.44;50.77
3544;BME280;1786;52.870;9.578;2022-09-13T04:01:25;99895.56;;;29.37;50.91
3544;BME280;1786;52.870;9.578;2022-09-13T04:03:52;99893.56;;;29.44;50.09
3544;BME280;1786;52.870;9.578;2022-09-13T04:06:22;99881.00;;;29.07;50.81
3544;BME280;1786;52.870;9.578;2022-09-13T04:08:49;99881.91;;;28.89;51.57
3544;BME280;1786;52.870;9.578;2022-09-13T04:11:16;99877.19;;;28.97;51.13
3544;BME280;1786;52.870;9.578;2022-09-13T04:13:42;99880.13;;;28.72;51.66
3544;BME280;1786;52.870;9.578;2022-09-13T04:16:09;99877.97;;;28.62;52.36
3544;BME280;1786;52.870;9.578;2022-09-13T04:18:36;99878.22;;;28.72;51.94
3544;BME280;1786;52.870;9.578;2022-09-13T04:21:02;99888.41;;;29.00;51.55
3544;BME280;1786;52.870;9.578;2022-09-13T04:23:30;99888.47;;;29.24;50.82
3544;BME280;1786;52.870;9.578;2022-09-13T04:26:02;99888.81;;;29.27;51.18
3544;BME280;1786;52.870;9.578;2022-09-13T04:28:29;99896.38;;;29.49;50.34
3544;BME280;1786;52.870;9.578;2022-09-13T04:30:56;99896.13;;;29.03;51.13
3544;BME280;1786;52.870;9.578;2022-09-13T04:33:22;99895.75;;;29.00;51.91
3544;BME280;1786;52.870;9.578;2022-09-13T04:35:56;99894.59;;;29.07;51.28
3544;BME280;1786;52.870;9.578;2022-09-13T04:38:23;99888.09;;;29.44;50.42
3544;BME280;1786;52.870;9.578;2022-09-13T04:40:54;99893.75;;;29.66;50.52
3544;BME280;1786;52.870;9.578;2022-09-13T04:43:21;99889.94;;;29.79;50.00
3544;BME280;1786;52.870;9.578;2022-09-13T04:45:48;99886.88;;;29.87;50.10
3544;BME280;1786;52.870;9.578;2022-09-13T04:48:15;99887.97;;;29.74;50.42
3544;BME280;1786;52.870;9.578;2022-09-13T04:50:42;99895.41;;;29.43;51.02
3544;BME280;1786;52.870;9.578;2022-09-13T04:53:10;99878.19;;;29.14;51.08
3544;BME280;1786;52.870;9.578;2022-09-13T04:55:36;99881.09;;;28.89;51.51
3544;BME280;1786;52.870;9.578;2022-09-13T04:58:04;99879.31;;;28.41;52.79
3544;BME280;1786;52.870;9.578;2022-09-13T05:00:31;99878.22;;;28.42;53.01
3544;BME280;1786;52.870;9.578;2022-09-13T05:02:58;99872.53;;;28.01;53.49
3544;BME280;1786;52.870;9.578;2022-09-13T05:05:25;99870.84;;;28.49;52.82
3544;BME280;1786;52.870;9.578;2022-09-13T05:07:54;99865.41;;;28.49;52.91
3544;BME280;1786;52.870;9.578;2022-09-13T05:10:20;99868.34;;;28.47;53.34
3544;BME280;1786;52.870;9.578;2022-09-13T05:12:47;99875.88;;;28.76;52.49
3544;BME280;1786;52.870;9.578;2022-09-13T05:15:14;99881.09;;;28.89;52.75
3544;BME280;1786;52.870;9.578;2022-09-13T05:17:41;99877.78;;;28.87;52.52
3544;BME280;1786;52.870;9.578;2022-09-13T05:20:08;99879.72;;;28.56;53.18
3544;BME280;1786;52.870;9.578;2022-09-13T05:22:35;99879.16;;;28.66;53.40
3544;BME280;1786;52.870;9.578;2022-09-13T05:25:01;99872.44;;;28.80;53.05
3544;BME280;1786;52.870;9.578;2022-09-13T05:27:28;99872.94;;;29.01;52.75
3544;BME280;1786;52.870;9.578;2022-09-13T05:29:55;99879.19;;;29.60;51.79
3544;BME280;1786;52.870;9.578;2022-09-13T05:32:21;99876.72;;;29.47;51.89
3544;BME280;1786;52.870;9.578;2022-09-13T05:34:48;99888.00;;;29.27;52.16
3544;BME280;1786;52.870;9.578;2022-09-13T05:37:15;99892.81;;;29.13;52.32
3544;BME280;1786;52.870;9.578;2022-09-13T05:39:42;99899.69;;;29.27;52.61
3544;BME280;1786;52.870;9.578;2022-09-13T05:42:28;99901.44;;;28.86;52.82
3544;BME280;1786;52.870;9.578;2022-09-13T05:44:55;99900.53;;;29.28;52.54
3544;BME280;1786;52.870;9.578;2022-09-13T05:47:22;99890.81;;;29.67;51.51
3544;BME280;1786;52.870;9.578;2022-09-13T05:49:49;99890.25;;;29.18;52.28
3544;BME280;1786;52.870;9.578;2022-09-13T05:52:35;99883.19;;;28.75;53.50
3544;BME280;1786;52.870;9.578;2022-09-13T05:55:02;99885.22;;;28.91;52.96
3544;BME280;1786;52.870;9.578;2022-09-13T05:57:28;99886.28;;;29.02;53.13
3544;BME280;1786;52.870;9.578;2022-09-13T05:59:55;99883.75;;;28.54;54.29
3544;BME280;1786;52.870;9.578;2022-09-13T06:02:21;99899.03;;;28.36;54.85
3544;BME280;1786;52.870;9.578;2022-09-13T06:04:48;99889.84;;;28.19;55.27
3544;BME280;1786;52.870;9.578;2022-09-13T06:07:16;99897.94;;;28.67;53.87
3544;BME280;1786;52.870;9.578;2022-09-13T06:09:43;99887.13;;;28.19;54.93
3544;BME280;1786;52.870;9.578;2022-09-13T06:12:10;99893.38;;;28.38;54.81
3544;BME280;1786;52.870;9.578;2022-09-13T06:14:37;99893.53;;;28.55;54.91
3544;BME280;1786;52.870;9.578;2022-09-13T06:17:03;99889.69;;;28.74;54.28
3544;BME280;1786;52.870;9.578;2022-09-13T06:19:30;99883.94;;;28.94;53.64
3544;BME280;1786;52.870;9.578;2022-09-13T06:21:57;99883.78;;;28.77;54.46
3544;BME280;1786;52.870;9.578;2022-09-13T06:24:23;99887.63;;;29.35;53.72
3544;BME280;1786;52.870;9.578;2022-09-13T06:26:50;99889.63;;;29.75;53.04
3544;BME280;1786;52.870;9.578;2022-09-13T06:29:17;99886.88;;;29.87;52.52
3544;BME280;1786;52.870;9.578;2022-09-13T06:31:43;99893.84;;;29.94;52.94
3544;BME280;1786;52.870;9.578;2022-09-13T06:34:11;99889.06;;;30.02;52.58
3544;BME280;1786;52.870;9.578;2022-09-13T06:36:41;99896.16;;;30.03;52.37
3544;BME280;1786;52.870;9.578;2022-09-13T06:39:08;99902.16;;;30.16;51.83
3544;BME280;1786;52.870;9.578;2022-09-13T06:41:35;99894.50;;;30.42;51.51
3544;BME280;1786;52.870;9.578;2022-09-13T06:44:02;99896.31;;;30.53;51.42
3544;BME280;1786;52.870;9.578;2022-09-13T06:46:31;99896.09;;;30.26;52.45
3544;BME280;1786;52.870;9.578;2022-09-13T06:49:03;99894.97;;;29.98;52.60
3544;BME280;1786;52.870;9.578;2022-09-13T06:51:31;99906.53;;;30.17;52.22
3544;BME280;1786;52.870;9.578;2022-09-13T06:53:58;99912.78;;;30.58;51.28
3544;BME280;1786;52.870;9.578;2022-09-13T06:56:30;99911.81;;;30.36;52.58
3544;BME280;1786;52.870;9.578;2022-09-13T06:58:59;99917.06;;;30.26;52.08
3544;BME280;1786;52.870;9.578;2022-09-13T07:01:28;99916.84;;;29.75;52.94
3544;BME280;1786;52.870;9.578;2022-09-13T07:04:01;99902.69;;;30.02;52.93
3544;BME280;1786;52.870;9.578;2022-09-13T07:06:30;99905.94;;;29.75;53.70
3544;BME280;1786;52.870;9.578;2022-09-13T07:08:58;99901.59;;;29.39;54.34
3544;BME280;1786;52.870;9.578;2022-09-13T07:11:30;99906.75;;;29.87;52.98
3544;BME280;1786;52.870;9.578;2022-09-13T07:13:57;99905.94;;;29.87;53.02
3544;BME280;1786;52.870;9.578;2022-09-13T07:16:26;99909.75;;;29.50;54.24
3544;BME280;1786;52.870;9.578;2022-09-13T07:18:55;99905.38;;;29.61;54.23
3544;BME280;1786;52.870;9.578;2022-09-13T07:21:22;99900.50;;;29.75;54.29
3544;BME280;1786;52.870;9.578;2022-09-13T07:23:50;99908.88;;;29.97;53.47
3544;BME280;1786;52.870;9.578;2022-09-13T07:26:17;99917.72;;;30.04;53.47
3544;BME280;1786;52.870;9.578;2022-09-13T07:28:46;99918.16;;;29.72;53.97
3544;BME280;1786;52.870;9.578;2022-09-13T07:31:22;99913.50;;;29.96;53.82
3544;BME280;1786;52.870;9.578;2022-09-13T07:33:57;99913.22;;;29.98;54.18
3544;BME280;1786;52.870;9.578;2022-09-13T07:36:25;99913.75;;;29.83;54.70
3544;BME280;1786;52.870;9.578;2022-09-13T07:38:52;99908.97;;;30.02;54.62
3544;BME280;1786;52.870;9.578;2022-09-13T07:41:21;99911.50;;;30.32;53.94
3544;BME280;1786;52.870;9.578;2022-09-13T07:43:48;99912.09;;;30.23;54.28
3544;BME280;1786;52.870;9.578;2022-09-13T07:46:18;99916.72;;;30.51;54.38
3544;BME280;1786;52.870;9.578;2022-09-13T07:48:45;99913.59;;;30.42;54.66
3544;BME280;1786;52.870;9.578;2022-09-13T07:51:15;99918.13;;;30.53;53.63
3544;BME280;1786;52.870;9.578;2022-09-13T07:53:43;99908.06;;;30.71;53.83
3544;BME280;1786;52.870;9.578;2022-09-13T07:56:12;99901.88;;;30.75;53.29
3544;BME280;1786;52.870;9.578;2022-09-13T07:58:40;99913.63;;;30.76;53.96
3544;BME280;1786;52.870;9.578;2022-09-13T08:01:23;99912.31;;;30.78;53.85
3544;BME280;1786;52.870;9.578;2022-09-13T08:03:52;99915.56;;;30.92;53.19
3544;BME280;1786;52.870;9.578;2022-09-13T08:06:19;99917.53;;;30.80;54.16
3544;BME280;1786;52.870;9.578;2022-09-13T08:08:46;99939.34;;;30.80;53.25
3544;BME280;1786;52.870;9.578;2022-09-13T08:11:16;99930.97;;;30.12;55.11
3544;BME280;1786;52.870;9.578;2022-09-13T08:13:45;99931.28;;;30.85;53.50
3544;BME280;1786;52.870;9.578;2022-09-13T08:16:12;99925.03;;;30.44;54.91
3544;BME280;1786;52.870;9.578;2022-09-13T08:18:43;99935.31;;;30.54;54.32
3544;BME280;1786;52.870;9.578;2022-09-13T08:21:10;99938.50;;;30.62;53.92
3544;BME280;1786;52.870;9.578;2022-09-13T08:23:37;99942.59;;;30.48;54.84
3544;BME280;1786;52.870;9.578;2022-09-13T08:26:04;99934.75;;;30.97;53.52
3544;BME280;1786;52.870;9.578;2022-09-13T08:28:40;99943.50;;;30.82;54.06
3544;BME280;1786;52.870;9.578;2022-09-13T08:31:09;99946.22;;;30.99;53.68
3544;BME280;1786;52.870;9.578;2022-09-13T08:33:36;99949.94;;;31.27;53.22
3544;BME280;1786;52.870;9.578;2022-09-13T08:36:08;99946.44;;;30.81;54.60
3544;BME280;1786;52.870;9.578;2022-09-13T08:38:34;99952.78;;;30.98;53.61
3544;BME280;1786;52.870;9.578;2022-09-13T08:41:04;99957.16;;;30.82;54.77
3544;BME280;1786;52.870;9.578;2022-09-13T08:43:58;99959.41;;;31.02;54.45
3544;BME280;1786;52.870;9.578;2022-09-13T08:46:32;99961.03;;;31.37;53.68
3544;BME280;1786;52.870;9.578;2022-09-13T08:49:06;99957.47;;;31.71;52.67
3544;BME280;1786;52.870;9.578;2022-09-13T08:51:52;99953.44;;;31.39;53.57
3544;BME280;1786;52.870;9.578;2022-09-13T08:54:19;99954.09;;;31.63;53.43
3544;BME280;1786;52.870;9.578;2022-09-13T08:57:05;99953.19;;;31.58;54.11
3544;BME280;1786;52.870;9.578;2022-09-13T08:59:57;99951.88;;;31.82;54.00
3544;BME280;1786;52.870;9.578;2022-09-13T09:05:25;99945.88;;;31.63;54.21
3544;BME280;1786;52.870;9.578;2022-09-13T09:08:01;99950.41;;;31.75;54.07
3544;BME280;1786;52.870;9.578;2022-09-13T09:10:35;99937.94;;;31.62;53.94
3544;BME280;1786;52.870;9.578;2022-09-13T09:13:15;99957.00;;;31.96;53.70
3544;BME280;1786;52.870;9.578;2022-09-13T09:15:52;99945.41;;;31.50;53.85
3544;BME280;1786;52.870;9.578;2022-09-13T09:18:24;99953.25;;;32.02;53.59
3544;BME280;1786;52.870;9.578;2022-09-13T09:20:55;99952.38;;;32.18;53.34
3544;BME280;1786;52.870;9.578;2022-09-13T09:23:47;99946.91;;;32.18;53.76
3544;BME280;1786;52.870;9.578;2022-09-13T09:26:20;99952.00;;;32.37;52.96
3544;BME280;1786;52.870;9.578;2022-09-13T09:29:14;99955.03;;;32.40;53.29
3544;BME280;1786;52.870;9.578;2022-09-13T09:40:46;99952.09;;;33.01;51.78
3544;BME280;1786;52.870;9.578;2022-09-13T09:43:22;99948.22;;;32.92;52.31
3544;BME280;1786;52.870;9.578;2022-09-13T09:45:51;99951.22;;;33.23;51.63
3544;BME280;1786;52.870;9.578;2022-09-13T09:48:23;99953.19;;;33.32;50.81
3544;BME280;1786;52.870;9.578;2022-09-13T09:50:54;99946.31;;;33.62;50.58
3544;BME280;1786;52.870;9.578;2022-09-13T09:53:31;99951.25;;;34.23;49.23
3544;BME280;1786;52.870;9.578;2022-09-13T09:56:19;99948.91;;;33.99;49.88
3544;BME280;1786;52.870;9.578;2022-09-13T09:58:46;99951.63;;;33.94;49.84
3544;BME280;1786;52.870;9.578;2022-09-13T10:01:17;99955.63;;;34.19;48.58
3544;BME280;1786;52.870;9.578;2022-09-13T10:03:56;99952.34;;;33.69;50.26
3544;BME280;1786;52.870;9.578;2022-09-13T10:06:26;99946.56;;;33.60;49.45
3544;BME280;1786;52.870;9.578;2022-09-13T10:08:59;99948.91;;;33.94;49.35
3544;BME280;1786;52.870;9.578;2022-09-13T10:11:47;99942.84;;;33.82;49.75
3544;BME280;1786;52.870;9.578;2022-09-13T10:14:42;99949.09;;;33.35;50.14
3544;BME280;1786;52.870;9.578;2022-09-13T10:17:27;99950.88;;;33.14;50.12
3544;BME280;1786;52.870;9.578;2022-09-13T10:19:55;99954.16;;;33.16;49.76
3544;BME280;1786;52.870;9.578;2022-09-13T10:22:25;99954.69;;;32.86;50.44
3544;BME280;1786;52.870;9.578;2022-09-13T10:24:52;99960.59;;;33.00;50.52
3544;BME280;1786;52.870;9.578;2022-09-13T10:27:32;99951.75;;;33.19;50.15
3544;BME280;1786;52.870;9.578;2022-09-13T10:30:02;99951.16;;;33.17;50.42
3544;BME280;1786;52.870;9.578;2022-09-13T10:32:30;99961.59;;;32.93;51.02
3544;BME280;1786;52.870;9.578;2022-09-13T10:35:14;99957.47;;;32.37;51.68
3544;BME280;1786;52.870;9.578;2022-09-13T10:37:43;99954.03;;;31.80;52.70
3544;BME280;1786;52.870;9.578;2022-09-13T10:40:19;99956.75;;;30.91;53.83
3544;BME280;1786;52.870;9.578;2022-09-13T10:43:13;99953.13;;;31.53;53.49
3544;BME280;1786;52.870;9.578;2022-09-13T10:45:41;99952.28;;;31.18;53.66
3544;BME280;1786;52.870;9.578;2022-09-13T10:48:14;99948.41;;;31.70;52.25
3544;BME280;1786;52.870;9.578;2022-09-13T10:51:03;99943.72;;;31.87;51.27
3544;BME280;1786;52.870;9.578;2022-09-13T10:53:34;99943.34;;;31.96;51.63
3544;BME280;1786;52.870;9.578;2022-09-13T10:56:02;99958.34;;;32.64;51.21
3544;BME280;1786;52.870;9.578;2022-09-13T10:58:29;99952.50;;;32.83;51.07
3544;BME280;1786;52.870;9.578;2022-09-13T11:10:02;99949.75;;;33.47;48.61
3544;BME280;1786;52.870;9.578;2022-09-13T11:13:04;99955.47;;;33.88;48.27
3544;BME280;1786;52.870;9.578;2022-09-13T11:27:06;99957.91;;;34.58;47.54
3544;BME280;1786;52.870;9.578;2022-09-13T11:34:45;99947.44;;;34.39;47.38
3544;BME280;1786;52.870;9.578;2022-09-13T11:37:39;99950.75;;;34.57;47.36
3544;BME280;1786;52.870;9.578;2022-09-13T11:40:28;99953.84;;;34.76;46.87
3544;BME280;1786;52.870;9.578;2022-09-13T11:43:18;99944.25;;;34.63;46.91
3544;BME280;1786;52.870;9.578;2022-09-13T11:46:02;99948.63;;;34.79;47.43
3544;BME280;1786;52.870;9.578;2022-09-13T11:48:49;99942.88;;;35.27;45.49
3544;BME280;1786;52.870;9.578;2022-09-13T11:57:26;99930.50;;;34.63;46.51
3544;BME280;1786;52.870;9.578;2022-09-13T11:59:59;99935.53;;;34.03;47.51
3544;BME280;1786;52.870;9.578;2022-09-13T12:02:44;99931.59;;;34.77;46.42
3544;BME280;1786;52.870;9.578;2022-09-13T12:05:17;99938.19;;;34.97;46.70
3544;BME280;1786;52.870;9.578;2022-09-13T12:07:54;99929.16;;;34.65;45.77
3544;BME280;1786;52.870;9.578;2022-09-13T12:10:27;99920.03;;;34.55;46.20
3544;BME280;1786;52.870;9.578;2022-09-13T12:12:56;99927.16;;;34.35;45.11
3544;BME280;1786;52.870;9.578;2022-09-13T12:15:39;99917.31;;;34.70;44.31
3544;BME280;1786;52.870;9.578;2022-09-13T12:18:16;99920.34;;;34.99;43.83
3544;BME280;1786;52.870;9.578;2022-09-13T12:20:53;99921.19;;;35.15;43.17
3544;BME280;1786;52.870;9.578;2022-09-13T12:23:34;99908.56;;;35.19;43.74
3544;BME280;1786;52.870;9.578;2022-09-13T12:26:04;99915.38;;;35.42;43.29
3544;BME280;1786;52.870;9.578;2022-09-13T12:28:38;99920.31;;;35.40;42.86
3544;BME280;1786;52.870;9.578;2022-09-13T12:31:10;99910.72;;;35.27;42.93
3544;BME280;1786;52.870;9.578;2022-09-13T12:33:40;99908.53;;;35.24;41.19
3544;BME280;1786;52.870;9.578;2022-09-13T12:36:22;99912.91;;;34.54;41.46
3544;BME280;1786;52.870;9.578;2022-09-13T12:42:04;99909.91;;;35.27;41.39
3544;BME280;1786;52.870;9.578;2022-09-13T12:50:32;99919.47;;;35.50;41.25
3544;BME280;1786;52.870;9.578;2022-09-13T12:56:26;99913.41;;;36.28;40.23
3544;BME280;1786;52.870;9.578;2022-09-13T12:59:21;99915.63;;;36.71;39.00
3544;BME280;1786;52.870;9.578;2022-09-13T13:01:50;99912.81;;;36.76;39.65
3544;BME280;1786;52.870;9.578;2022-09-13T13:04:23;99916.69;;;37.09;40.36
3544;BME280;1786;52.870;9.578;2022-09-13T13:09:39;99918.16;;;36.17;37.66
3544;BME280;1786;52.870;9.578;2022-09-13T13:12:09;99907.31;;;35.82;37.46
3544;BME280;1786;52.870;9.578;2022-09-13T13:20:43;99910.81;;;35.92;37.83
3544;BME280;1786;52.870;9.578;2022-09-13T13:23:33;99911.78;;;35.47;38.57
3544;BME280;1786;52.870;9.578;2022-09-13T13:26:05;99910.53;;;35.99;38.71
3544;BME280;1786;52.870;9.578;2022-09-13T13:31:31;99912.59;;;36.28;38.30
3544;BME280;1786;52.870;9.578;2022-09-13T13:34:02;99911.19;;;36.75;37.41
3544;BME280;1786;52.870;9.578;2022-09-13T13:36:50;99910.00;;;35.92;37.57
3544;BME280;1786;52.870;9.578;2022-09-13T13:41:57;99912.97;;;36.55;38.37
3544;BME280;1786;52.870;9.578;2022-09-13T14:00:13;99881.28;;;35.64;37.84
3544;BME280;1786;52.870;9.578;2022-09-13T14:05:21;99883.84;;;34.83;39.18
3544;BME280;1786;52.870;9.578;2022-09-13T14:08:31;99891.81;;;35.26;38.62
3544;BME280;1786;52.870;9.578;2022-09-13T14:11:10;99891.28;;;35.08;37.41
3544;BME280;1786;52.870;9.578;2022-09-13T14:16:46;99887.63;;;35.44;38.49
3544;BME280;1786;52.870;9.578;2022-09-13T14:19:23;99900.84;;;34.65;38.76
3544;BME280;1786;52.870;9.578;2022-09-13T14:22:37;99901.13;;;34.99;38.68
3544;BME280;1786;52.870;9.578;2022-09-13T14:24:58;99896.22;;;34.81;38.40
3544;BME280;1786;52.870;9.578;2022-09-13T14:27:39;99895.66;;;34.58;39.45
3544;BME280;1786;52.870;9.578;2022-09-13T14:30:38;99902.53;;;34.71;37.77
3544;BME280;1786;52.870;9.578;2022-09-13T14:33:05;99895.94;;;35.13;38.45
3544;BME280;1786;52.870;9.578;2022-09-13T14:35:34;99901.94;;;35.05;39.33
3544;BME280;1786;52.870;9.578;2022-09-13T14:38:18;99890.97;;;35.00;39.11
3544;BME280;1786;52.870;9.578;2022-09-13T14:40:51;99889.31;;;35.04;36.83
3544;BME280;1786;52.870;9.578;2022-09-13T14:43:22;99888.78;;;34.61;37.97
3544;BME280;1786;52.870;9.578;2022-09-13T14:45:53;99886.53;;;34.37;39.16
3544;BME280;1786;52.870;9.578;2022-09-13T14:48:31;99881.56;;;34.14;39.28
3544;BME280;1786;52.870;9.578;2022-09-13T14:51:26;99873.84;;;33.48;39.61
3544;BME280;1786;52.870;9.578;2022-09-13T14:54:00;99876.06;;;34.14;39.06
3544;BME280;1786;52.870;9.578;2022-09-13T14:56:41;99879.88;;;34.02;39.35
3544;BME280;1786;52.870;9.578;2022-09-13T14:59:20;99881.50;;;34.03;39.13
3544;BME280;1786;52.870;9.578;2022-09-13T15:01:50;99873.22;;;33.88;38.98
3544;BME280;1786;52.870;9.578;2022-09-13T15:04:17;99882.13;;;34.31;39.40
3544;BME280;1786;52.870;9.578;2022-09-13T15:06:44;99885.72;;;34.47;37.81
3544;BME280;1786;52.870;9.578;2022-09-13T15:11:42;99879.50;;;33.78;39.52
3544;BME280;1786;52.870;9.578;2022-09-13T15:14:27;99878.81;;;34.14;39.13
3544;BME280;1786;52.870;9.578;2022-09-13T15:16:59;99876.97;;;34.50;39.06
3544;BME280;1786;52.870;9.578;2022-09-13T15:19:29;99875.59;;;34.99;38.34
3544;BME280;1786;52.870;9.578;2022-09-13T15:22:24;99880.78;;;35.36;37.77
3544;BME280;1786;52.870;9.578;2022-09-13T15:24:54;99877.44;;;35.60;38.35
3544;BME280;1786;52.870;9.578;2022-09-13T15:27:30;99872.81;;;35.35;37.62
3544;BME280;1786;52.870;9.578;2022-09-13T15:29:59;99869.56;;;34.45;38.05
3544;BME280;1786;52.870;9.578;2022-09-13T15:32:39;99875.06;;;34.76;37.69
3544;BME280;1786;52.870;9.578;2022-09-13T15:35:36;99875.88;;;34.82;37.87
3544;BME280;1786;52.870;9.578;2022-09-13T15:38:30;99884.94;;;35.08;37.35
3544;BME280;1786;52.870;9.578;2022-09-13T15:41:01;99872.63;;;33.71;39.29
3544;BME280;1786;52.870;9.578;2022-09-13T15:43:29;99877.19;;;34.18;38.43
3544;BME280;1786;52.870;9.578;2022-09-13T15:45:57;99874.25;;;34.76;37.65
3544;BME280;1786;52.870;9.578;2022-09-13T15:48:28;99881.06;;;35.24;37.55
3544;BME280;1786;52.870;9.578;2022-09-13T15:51:13;99878.84;;;34.50;37.77
3544;BME280;1786;52.870;9.578;2022-09-13T15:53:42;99879.75;;;34.81;38.33
3544;BME280;1786;52.870;9.578;2022-09-13T15:56:13;99875.00;;;34.20;38.61
3544;BME280;1786;52.870;9.578;2022-09-13T15:58:40;99886.22;;;34.13;39.55
3544;BME280;1786;52.870;9.578;2022-09-13T16:01:08;99879.66;;;33.56;38.83